Time;durP1;ratioP1;P1;durP2;ratioP2;P2;SDS_P1;SDS_P2;PMS_P1;PMS_P2;Temp;Humidity;BMP_temperature;BMP_pressure;BME280_temperature;BME280_humidity;BME280_pressure;Samples;Min_cycle;Max_cycle;Signal;HPM_P1;HPM_P2
2022/04/29 00:00:55;;;;;;;6.85;6.15;;;15.20;1.00;;;;;;5048879;28;20045;-86
2022/04/29 00:03:21;;;;;;;6.55;5.93;;;15.20;1.00;;;;;;5056187;28;20025;-86
2022/04/29 00:05:47;;;;;;;8.30;6.13;;;14.90;1.00;;;;;;5053118;28;20068;-86
2022/04/29 00:08:14;;;;;;;7.32;6.10;;;14.80;1.00;;;;;;5054454;28;20017;-86
2022/04/29 00:10:41;;;;;;;6.68;5.93;;;14.70;1.00;;;;;;5054273;28;20024;-87
2022/04/29 00:13:09;;;;;;;6.68;5.97;;;14.50;1.00;;;;;;5050629;28;20028;-85
2022/04/29 00:15:35;;;;;;;7.85;6.38;;;14.50;1.00;;;;;;5054511;28;20029;-87
2022/04/29 00:18:00;;;;;;;6.85;6.15;;;14.50;1.00;;;;;;5054961;28;20386;-86
2022/04/29 00:20:26;;;;;;;7.43;6.05;;;14.70;1.00;;;;;;5054284;28;20063;-86
2022/04/29 00:22:51;;;;;;;7.20;6.50;;;14.70;1.00;;;;;;5052317;28;20033;-86
2022/04/29 00:25:17;;;;;;;11.77;6.50;;;14.40;1.00;;;;;;5052322;28;20064;-86
2022/04/29 00:27:43;;;;;;;7.40;6.70;;;14.40;1.00;;;;;;5051797;28;20025;-86
2022/04/29 00:30:10;;;;;;;7.68;6.88;;;14.70;1.00;;;;;;5054237;28;20378;-86
2022/04/29 00:32:37;;;;;;;7.75;7.05;;;14.50;1.00;;;;;;5052935;28;20029;-86
2022/04/29 00:35:04;;;;;;;7.40;6.60;;;14.50;1.00;;;;;;5052651;28;20101;-86
2022/04/29 00:37:30;;;;;;;7.10;6.40;;;14.50;1.00;;;;;;5054060;28;20032;-86
2022/04/29 00:39:56;;;;;;;7.63;6.93;;;14.50;1.00;;;;;;5049934;28;20053;-86
2022/04/29 00:42:22;;;;;;;10.45;6.93;;;14.60;1.00;;;;;;5055759;28;20390;-86
2022/04/29 00:44:48;;;;;;;7.30;6.53;;;14.40;1.00;;;;;;5054027;28;20029;-86
2022/04/29 00:47:18;;;;;;;7.50;6.75;;;14.30;1.00;;;;;;5052809;28;20044;-86
2022/04/29 00:49:45;;;;;;;8.05;7.18;;;14.30;1.00;;;;;;5053948;28;20017;-85
2022/04/29 00:52:19;;;;;;;8.23;6.80;;;14.20;1.00;;;;;;5049969;28;20025;-86
2022/04/29 00:54:59;;;;;;;7.97;6.70;;;14.10;1.00;;;;;;5051458;28;20028;-86
2022/04/29 00:57:34;;;;;;;7.97;7.28;;;14.00;1.00;;;;;;5062726;28;20037;-86
2022/04/29 01:00:03;;;;;;;7.70;7.00;;;14.20;1.00;;;;;;5053277;28;20021;-86
2022/04/29 01:02:30;;;;;;;9.38;7.10;;;14.10;1.00;;;;;;5053971;28;20029;-86
2022/04/29 01:05:11;;;;;;;7.93;6.85;;;14.20;1.00;;;;;;5052605;28;20104;-86
2022/04/29 01:07:40;;;;;;;7.57;6.80;;;14.30;1.00;;;;;;5054959;28;20036;-86
2022/04/29 01:10:06;;;;;;;9.70;7.22;;;14.30;1.00;;;;;;5052660;28;20022;-86
2022/04/29 01:12:35;;;;;;;9.82;7.68;;;14.30;1.00;;;;;;5057688;28;20021;-86
2022/04/29 01:15:10;;;;;;;8.38;7.53;;;14.10;1.00;;;;;;5057079;28;20025;-86
2022/04/29 01:17:37;;;;;;;8.68;7.78;;;14.10;1.00;;;;;;5057447;28;20083;-86
2022/04/29 01:20:08;;;;;;;7.63;6.85;;;14.20;1.00;;;;;;5057259;28;20094;-86
2022/04/29 01:22:34;;;;;;;10.38;7.80;;;14.30;1.00;;;;;;5057297;28;20028;-85
2022/04/29 01:25:00;;;;;;;10.23;7.72;;;14.40;1.00;;;;;;5052990;28;20084;-86
2022/04/29 01:27:26;;;;;;;8.40;7.60;;;14.50;1.00;;;;;;5058917;28;20029;-86
2022/04/29 01:30:08;;;;;;;8.45;7.60;;;14.20;1.00;;;;;;5057270;28;20047;-86
2022/04/29 01:32:35;;;;;;;8.90;7.88;;;14.20;1.00;;;;;;5057149;28;20116;-86
2022/04/29 01:35:01;;;;;;;8.02;7.22;;;13.90;1.00;;;;;;5056866;28;20047;-87
2022/04/29 01:37:27;;;;;;;8.40;7.57;;;14.00;1.00;;;;;;5055295;28;20024;-86
2022/04/29 01:39:53;;;;;;;7.70;7.00;;;13.90;1.00;;;;;;5052906;28;20443;-85
2022/04/29 01:42:18;;;;;;;7.63;6.93;;;13.80;1.00;;;;;;5058909;28;20040;-86
2022/04/29 01:44:45;;;;;;;8.63;7.35;;;13.70;1.00;;;;;;5056834;28;20111;-86
2022/04/29 01:47:11;;;;;;;8.95;7.50;;;13.70;1.00;;;;;;5056826;28;20052;-86
2022/04/29 01:49:37;;;;;;;8.10;7.30;;;13.60;1.00;;;;;;5055362;28;20031;-86
2022/04/29 01:52:03;;;;;;;8.40;7.57;;;13.70;1.00;;;;;;5051492;28;20029;-86
2022/04/29 01:54:29;;;;;;;9.07;7.55;;;13.90;1.00;;;;;;5057836;28;20029;-86
2022/04/29 01:56:54;;;;;;;8.50;7.70;;;13.80;1.00;;;;;;5055594;28;20029;-86
2022/04/29 01:59:20;;;;;;;11.30;7.95;;;13.80;1.00;;;;;;5056436;28;20502;-86
2022/04/29 02:01:46;;;;;;;10.20;7.80;;;13.70;1.00;;;;;;5056678;28;20028;-86
2022/04/29 02:04:13;;;;;;;10.13;7.32;;;13.60;1.00;;;;;;5052908;28;20016;-86
2022/04/29 02:06:39;;;;;;;9.68;7.07;;;13.40;1.00;;;;;;5055150;28;20080;-86
2022/04/29 02:09:06;;;;;;;7.93;7.10;;;13.50;1.00;;;;;;5057438;28;20794;-86
2022/04/29 02:11:32;;;;;;;10.65;7.55;;;13.50;1.00;;;;;;5056456;28;20071;-86
2022/04/29 02:13:57;;;;;;;8.73;7.00;;;13.40;1.00;;;;;;5056353;28;20486;-86
2022/04/29 02:16:23;;;;;;;8.35;7.22;;;13.50;1.00;;;;;;5055379;28;20036;-86
2022/04/29 02:18:49;;;;;;;9.63;7.43;;;13.70;1.00;;;;;;5052307;28;20036;-86
2022/04/29 02:21:15;;;;;;;7.97;7.18;;;13.50;1.00;;;;;;5058132;28;20571;-85
2022/04/29 02:23:40;;;;;;;7.78;6.97;;;13.40;1.00;;;;;;5055829;28;20021;-86
2022/04/29 02:26:06;;;;;;;7.93;7.13;;;13.40;1.00;;;;;;5054898;28;20045;-86
2022/04/29 02:28:32;;;;;;;7.95;6.80;;;13.40;1.00;;;;;;5054684;28;20044;-86
2022/04/29 02:30:59;;;;;;;8.52;6.93;;;13.40;1.00;;;;;;5050471;28;20494;-86
2022/04/29 02:33:25;;;;;;;7.72;7.03;;;13.20;1.00;;;;;;5056615;28;20474;-85
2022/04/29 02:35:51;;;;;;;9.32;7.40;;;13.00;1.00;;;;;;5055945;28;20517;-86
2022/04/29 02:38:17;;;;;;;7.13;6.43;;;13.00;1.00;;;;;;5055512;28;20029;-86
2022/04/29 02:40:42;;;;;;;7.75;7.05;;;13.10;1.00;;;;;;5055821;28;20503;-86
2022/04/29 02:43:08;;;;;;;8.07;6.78;;;13.00;1.00;;;;;;5052830;28;20108;-86
2022/04/29 02:45:34;;;;;;;7.63;6.90;;;13.00;1.00;;;;;;5055655;28;20033;-86
2022/04/29 02:48:00;;;;;;;9.43;6.97;;;13.00;1.00;;;;;;5056526;28;20108;-86
2022/04/29 02:50:25;;;;;;;7.10;6.47;;;12.90;1.00;;;;;;5054326;28;20037;-86
2022/04/29 02:52:51;;;;;;;8.18;7.38;;;12.90;1.00;;;;;;5055336;28;20057;-86
2022/04/29 02:55:17;;;;;;;8.38;6.97;;;12.90;1.00;;;;;;5053749;28;20452;-86
2022/04/29 02:57:43;;;;;;;7.82;7.00;;;13.00;1.00;;;;;;5051629;28;20029;-85
2022/04/29 03:00:09;;;;;;;7.40;6.70;;;12.90;1.00;;;;;;5057524;28;20032;-86
2022/04/29 03:02:35;;;;;;;8.10;6.20;;;13.00;1.00;;;;;;5055560;28;20078;-86
2022/04/29 03:05:00;;;;;;;7.97;7.25;;;12.90;1.00;;;;;;5055145;28;20036;-86
2022/04/29 03:07:26;;;;;;;8.05;6.63;;;12.70;1.00;;;;;;5053158;28;20025;-86
2022/04/29 03:09:52;;;;;;;7.97;7.20;;;12.80;1.00;;;;;;5050910;28;20045;-86
2022/04/29 03:12:17;;;;;;;7.68;6.30;;;12.70;1.00;;;;;;5056417;28;20032;-86
2022/04/29 03:14:43;;;;;;;7.30;6.60;;;12.70;1.00;;;;;;5055388;28;20110;-86
2022/04/29 03:18:18;;;;;;;7.78;6.95;;;12.50;1.00;;;;;;5055132;28;20056;-86
2022/04/29 03:19:59;;;;;;;7.70;7.00;;;12.50;1.00;;;;;;5054871;28;20100;-86
2022/04/29 03:22:25;;;;;;;7.25;6.55;;;12.40;1.00;;;;;;5053978;28;20111;-86
2022/04/29 03:24:51;;;;;;;7.60;6.70;;;12.40;1.00;;;;;;5051486;28;20022;-86
2022/04/29 03:27:16;;;;;;;7.60;6.50;;;12.30;1.00;;;;;;5057118;28;20603;-85
2022/04/29 03:29:42;;;;;;;8.45;6.35;;;12.30;1.00;;;;;;5054941;28;20100;-85
2022/04/29 03:32:08;;;;;;;6.93;6.22;;;12.20;1.00;;;;;;5054010;28;20036;-86
2022/04/29 03:34:34;;;;;;;8.02;6.40;;;12.20;1.00;;;;;;5053551;28;20044;-86
2022/04/29 03:36:59;;;;;;;7.40;6.55;;;12.40;1.00;;;;;;5050278;28;20504;-86
2022/04/29 03:39:25;;;;;;;8.75;6.90;;;12.30;1.00;;;;;;5056851;28;20452;-86
2022/04/29 03:41:51;;;;;;;7.45;6.72;;;12.30;1.00;;;;;;5054798;28;20044;-86
2022/04/29 03:44:16;;;;;;;7.18;6.50;;;12.30;1.00;;;;;;5054683;28;20067;-85
2022/04/29 03:46:42;;;;;;;7.60;6.60;;;12.10;1.00;;;;;;5053388;28;20068;-85
2022/04/29 03:51:53;;;;;;;6.63;6.03;;;12.20;1.00;;;;;;5050875;28;20207;-85
2022/04/29 03:54:18;;;;;;;7.10;6.40;;;12.00;1.00;;;;;;5056538;28;20116;-86
2022/04/29 03:56:44;;;;;;;6.85;6.20;;;12.00;1.00;;;;;;5054670;28;20036;-86
2022/04/29 03:59:11;;;;;;;7.25;6.47;;;12.20;1.00;;;;;;5054685;28;20033;-85
2022/04/29 04:01:36;;;;;;;7.63;6.53;;;12.10;1.00;;;;;;5054632;28;20027;-86
2022/04/29 04:04:03;;;;;;;8.05;6.25;;;12.00;1.00;;;;;;5050831;28;20096;-85
2022/04/29 04:09:14;;;;;;;9.05;6.55;;;12.30;1.00;;;;;;5055378;28;20123;-85
2022/04/29 04:11:40;;;;;;;8.68;6.43;;;12.00;1.00;;;;;;5053254;28;20025;-85
2022/04/29 04:14:05;;;;;;;7.35;6.65;;;12.10;1.00;;;;;;5054476;28;20024;-85
2022/04/29 04:16:31;;;;;;;7.57;6.30;;;12.00;1.00;;;;;;5054566;28;20025;-85
2022/04/29 04:18:57;;;;;;;7.82;6.57;;;12.10;1.00;;;;;;5066175;28;20037;-86
2022/04/29 04:21:22;;;;;;;6.88;6.05;;;12.20;1.00;;;;;;5056112;28;20124;-85
2022/04/29 04:23:48;;;;;;;8.02;5.82;;;12.00;1.00;;;;;;5054311;28;20029;-85
2022/04/29 04:26:14;;;;;;;6.30;5.70;;;11.80;1.00;;;;;;5054450;28;20029;-85
2022/04/29 04:28:39;;;;;;;9.43;5.90;;;11.80;1.00;;;;;;5052772;28;20393;-86
2022/04/29 04:31:05;;;;;;;6.45;5.50;;;11.60;1.00;;;;;;5050786;28;20056;-86
2022/04/29 04:33:31;;;;;;;7.20;6.00;;;11.60;1.00;;;;;;5054926;28;20028;-85
2022/04/29 04:35:57;;;;;;;5.80;5.25;;;11.50;1.00;;;;;;5052998;28;20450;-85
2022/04/29 04:38:23;;;;;;;10.30;6.57;;;11.50;1.00;;;;;;5052915;28;20473;-86
2022/04/29 04:40:49;;;;;;;9.55;6.05;;;11.50;1.00;;;;;;5054274;28;20028;-85
2022/04/29 04:43:14;;;;;;;7.53;5.82;;;11.60;1.00;;;;;;5054170;28;20032;-86
2022/04/29 04:45:40;;;;;;;6.65;5.40;;;11.70;1.00;;;;;;5056422;28;20041;-86
2022/04/29 04:48:06;;;;;;;7.68;6.03;;;11.60;1.00;;;;;;5058164;28;20028;-85
2022/04/29 04:50:31;;;;;;;8.18;5.78;;;11.50;1.00;;;;;;5057655;28;20027;-85
2022/04/29 04:52:57;;;;;;;6.55;5.95;;;11.40;1.00;;;;;;5057951;28;20104;-85
2022/04/29 04:55:23;;;;;;;7.18;6.45;;;11.40;1.00;;;;;;5056730;28;20043;-86
2022/04/29 04:57:48;;;;;;;7.30;6.40;;;11.50;1.00;;;;;;5086790;28;20061;-86
2022/04/29 05:00:14;;;;;;;8.15;6.80;;;11.50;1.00;;;;;;5059847;28;20010;-85
2022/04/29 05:02:41;;;;;;;9.55;6.50;;;12.00;1.00;;;;;;5057774;28;20051;-85
2022/04/29 05:05:08;;;;;;;7.40;6.13;;;11.40;1.00;;;;;;5055988;28;20044;-85
2022/04/29 05:07:34;;;;;;;9.25;6.43;;;11.40;1.00;;;;;;5056214;28;20020;-85
2022/04/29 05:09:59;;;;;;;7.15;5.97;;;11.60;1.00;;;;;;5053240;28;20029;-86
2022/04/29 05:12:25;;;;;;;6.72;5.97;;;11.70;1.00;;;;;;5058367;28;20017;-85
2022/04/29 05:14:51;;;;;;;11.73;6.55;;;11.70;1.00;;;;;;5057653;28;20043;-85
2022/04/29 05:17:16;;;;;;;7.05;5.97;;;11.70;1.00;;;;;;5057202;28;20017;-86
2022/04/29 05:19:43;;;;;;;10.07;6.53;;;11.70;1.00;;;;;;5057485;28;20028;-86
2022/04/29 05:22:08;;;;;;;8.20;5.82;;;11.50;1.00;;;;;;5054312;28;20021;-85
2022/04/29 05:24:34;;;;;;;7.57;5.97;;;11.70;1.00;;;;;;5057507;28;20390;-86
2022/04/29 05:27:01;;;;;;;6.35;5.75;;;11.70;1.00;;;;;;5058089;28;20409;-85
2022/04/29 05:29:26;;;;;;;6.53;5.20;;;11.60;1.00;;;;;;5057216;28;20112;-86
2022/04/29 05:31:52;;;;;;;9.60;6.55;;;11.50;1.00;;;;;;5056863;28;20107;-85
2022/04/29 05:34:18;;;;;;;6.43;5.82;;;11.80;1.00;;;;;;5055222;28;20124;-85
2022/04/29 05:36:44;;;;;;;8.15;5.47;;;11.70;1.00;;;;;;5054651;28;20025;-86
2022/04/29 05:44:38;;;;;;;7.03;6.32;;;11.70;1.00;;;;;;5064891;28;20031;-86
2022/04/29 05:47:04;;;;;;;6.88;6.18;;;11.70;1.00;;;;;;5061894;28;20037;-85
2022/04/29 05:49:30;;;;;;;8.02;6.07;;;11.70;1.00;;;;;;5055441;28;20029;-85
2022/04/29 05:51:58;;;;;;;8.65;6.40;;;11.70;1.00;;;;;;5052974;28;20044;-85
2022/04/29 05:54:23;;;;;;;8.55;6.30;;;11.80;1.00;;;;;;5057544;28;20032;-85
2022/04/29 05:56:49;;;;;;;9.10;6.15;;;12.00;1.00;;;;;;5056767;28;20401;-85
2022/04/29 05:59:15;;;;;;;8.43;5.80;;;12.10;1.00;;;;;;5056756;28;20060;-85
2022/04/29 06:01:40;;;;;;;8.20;6.72;;;12.10;1.00;;;;;;5053498;28;20107;-85
2022/04/29 06:04:06;;;;;;;12.38;6.38;;;12.20;1.00;;;;;;5053215;28;20079;-86
2022/04/29 06:06:33;;;;;;;7.03;6.15;;;12.50;1.00;;;;;;5056978;28;20044;-86
2022/04/29 06:08:59;;;;;;;8.80;6.07;;;12.50;1.00;;;;;;5056989;28;20021;-85
2022/04/29 06:11:24;;;;;;;7.55;6.63;;;12.60;1.00;;;;;;5056469;28;20516;-85
2022/04/29 06:13:51;;;;;;;6.97;6.32;;;12.60;1.00;;;;;;5056282;28;20020;-84
2022/04/29 06:16:17;;;;;;;8.38;6.55;;;12.70;1.00;;;;;;5052693;28;20068;-86
2022/04/29 06:18:43;;;;;;;7.57;6.60;;;12.80;1.00;;;;;;5054136;28;20100;-86
2022/04/29 06:21:09;;;;;;;10.23;6.97;;;12.90;1.00;;;;;;5056083;28;20498;-86
2022/04/29 06:23:35;;;;;;;12.40;6.50;;;12.80;1.00;;;;;;5054803;28;20064;-85
2022/04/29 06:26:00;;;;;;;11.68;6.82;;;12.80;1.00;;;;;;5054643;28;20071;-85
2022/04/29 06:28:26;;;;;;;10.52;7.20;;;12.80;1.00;;;;;;5055344;28;20435;-85
2022/04/29 06:30:52;;;;;;;8.23;6.78;;;12.80;1.00;;;;;;5052175;28;20041;-86
2022/04/29 06:33:17;;;;;;;9.25;6.57;;;12.80;1.00;;;;;;5058024;28;20389;-85
2022/04/29 06:35:43;;;;;;;10.45;7.30;;;12.80;1.00;;;;;;5055781;28;20072;-86
2022/04/29 06:38:12;;;;;;;8.20;6.70;;;13.00;1.00;;;;;;5055961;28;20492;-85
2022/04/29 06:40:38;;;;;;;8.13;6.50;;;13.20;1.00;;;;;;5055860;28;20095;-86
2022/04/29 06:43:03;;;;;;;8.02;6.97;;;13.40;1.00;;;;;;5050715;28;20124;-86
2022/04/29 06:45:29;;;;;;;9.05;6.93;;;13.40;1.00;;;;;;5056693;28;20033;-85
2022/04/29 06:47:55;;;;;;;8.70;6.72;;;13.50;1.00;;;;;;5055945;28;20029;-85
2022/04/29 06:50:20;;;;;;;11.00;7.20;;;13.50;1.00;;;;;;5055660;28;20485;-86
2022/04/29 06:52:46;;;;;;;8.23;6.25;;;13.60;1.00;;;;;;5054373;28;20030;-86
2022/04/29 06:55:12;;;;;;;7.93;7.13;;;13.60;1.00;;;;;;5052869;28;20401;-86
2022/04/29 06:57:37;;;;;;;9.70;6.70;;;13.70;1.00;;;;;;5054877;28;20032;-86
2022/04/29 07:00:06;;;;;;;9.93;7.43;;;13.80;1.00;;;;;;5056261;28;20394;-85
2022/04/29 07:02:32;;;;;;;10.50;7.53;;;13.90;1.00;;;;;;5054124;28;20025;-86
2022/04/29 07:04:59;;;;;;;8.63;6.60;;;14.00;1.00;;;;;;5052148;28;20474;-86
2022/04/29 07:07:28;;;;;;;12.07;7.75;;;14.00;1.00;;;;;;5054572;28;20025;-85
2022/04/29 07:09:55;;;;;;;11.95;7.40;;;14.20;1.00;;;;;;5051315;28;20032;-85
2022/04/29 07:12:20;;;;;;;7.05;6.35;;;14.30;1.00;;;;;;5057197;28;20082;-86
2022/04/29 07:14:46;;;;;;;6.72;6.00;;;14.50;1.00;;;;;;5055023;28;20029;-86
2022/04/29 07:17:12;;;;;;;8.85;5.70;;;14.60;1.00;;;;;;5055138;28;20509;-86
2022/04/29 07:19:38;;;;;;;7.07;5.97;;;14.70;1.00;;;;;;5055068;28;20503;-86
2022/04/29 07:22:05;;;;;;;6.43;5.82;;;14.80;1.00;;;;;;5051317;28;20246;-86
2022/04/29 07:24:31;;;;;;;6.00;5.50;;;15.00;1.00;;;;;;5055904;28;20098;-85
2022/04/29 07:26:57;;;;;;;6.38;5.78;;;15.10;1.00;;;;;;5055541;28;20424;-86
2022/04/29 07:29:23;;;;;;;5.85;5.25;;;15.20;1.00;;;;;;5053353;28;20029;-86
2022/04/29 07:31:49;;;;;;;11.98;6.00;;;15.40;1.00;;;;;;5053674;28;20419;-85
2022/04/29 07:34:15;;;;;;;6.43;5.13;;;15.50;1.00;;;;;;5052428;28;20119;-85
2022/04/29 07:42:09;;;;;;;5.40;4.90;;;15.70;1.00;;;;;;5056714;28;20079;-86
2022/04/29 07:44:35;;;;;;;8.63;5.65;;;15.80;1.00;;;;;;5054620;28;20434;-86
2022/04/29 07:47:01;;;;;;;6.45;5.18;;;15.90;1.00;;;;;;5054421;28;20032;-85
2022/04/29 07:49:27;;;;;;;6.65;4.85;;;16.00;1.00;;;;;;5054068;28;20024;-86
2022/04/29 07:51:53;;;;;;;7.07;5.70;;;16.10;1.00;;;;;;5049711;28;20040;-86
2022/04/29 07:54:19;;;;;;;6.70;5.38;;;16.10;1.00;;;;;;5056645;28;20021;-86
2022/04/29 07:56:44;;;;;;;6.85;5.50;;;16.10;1.00;;;;;;5054732;28;20055;-86
2022/04/29 07:59:10;;;;;;;7.68;5.15;;;16.20;1.00;;;;;;5053164;28;20044;-86
2022/04/29 08:01:37;;;;;;;8.40;5.32;;;16.20;1.00;;;;;;5054579;28;20028;-86
2022/04/29 08:04:03;;;;;;;7.75;4.85;;;16.40;1.00;;;;;;5050718;28;20449;-86
2022/04/29 08:06:29;;;;;;;9.75;4.97;;;16.50;1.00;;;;;;5055888;28;20041;-86
2022/04/29 08:08:55;;;;;;;9.05;5.13;;;16.60;1.00;;;;;;5053300;28;20038;-86
2022/04/29 08:11:20;;;;;;;7.45;5.07;;;16.60;1.00;;;;;;5054090;28;20029;-85
2022/04/29 08:13:47;;;;;;;7.25;5.20;;;16.80;1.00;;;;;;5054324;28;20547;-86
2022/04/29 08:16:13;;;;;;;7.28;5.07;;;16.90;1.00;;;;;;5051892;28;20432;-86
2022/04/29 08:18:40;;;;;;;7.13;5.35;;;16.90;1.00;;;;;;5056449;28;20351;-86
2022/04/29 08:21:06;;;;;;;7.57;4.88;;;17.00;1.00;;;;;;5056968;28;20497;-86
2022/04/29 08:23:32;;;;;;;6.40;4.70;;;17.00;1.00;;;;;;5058644;28;20108;-86
2022/04/29 08:25:58;;;;;;;8.63;5.13;;;17.10;1.00;;;;;;5058033;28;20108;-86
2022/04/29 08:28:25;;;;;;;5.15;4.70;;;17.30;1.00;;;;;;5055993;28;20464;-86
2022/04/29 08:30:51;;;;;;;4.63;4.10;;;17.40;1.00;;;;;;5054835;28;20068;-86
2022/04/29 08:33:17;;;;;;;7.82;4.70;;;17.50;1.00;;;;;;5060316;28;20025;-86
2022/04/29 08:35:43;;;;;;;5.18;4.60;;;17.60;1.00;;;;;;5058080;28;20479;-86
2022/04/29 08:38:10;;;;;;;8.25;4.50;;;17.70;1.00;;;;;;5058238;28;20056;-86
2022/04/29 08:40:45;;;;;;;4.97;4.30;;;17.90;1.00;;;;;;5057857;28;20081;-86
2022/04/29 08:43:13;;;;;;;4.80;4.40;;;17.90;1.00;;;;;;5055320;28;20032;-86
2022/04/29 08:45:40;;;;;;;4.60;4.20;;;18.00;1.00;;;;;;5056873;28;20580;-86
2022/04/29 08:48:06;;;;;;;5.28;4.65;;;18.20;1.00;;;;;;5059348;28;20031;-86
2022/04/29 08:50:32;;;;;;;5.65;4.80;;;18.40;1.00;;;;;;5057943;28;20029;-86
2022/04/29 08:52:58;;;;;;;4.50;4.10;;;18.50;1.00;;;;;;5056633;28;20021;-86
2022/04/29 09:01:02;;;;;;;6.82;5.15;;;18.40;1.00;;;;;;5053499;28;20040;-86
2022/04/29 09:03:29;;;;;;;5.30;4.80;;;18.50;1.00;;;;;;5067191;28;20024;-86
2022/04/29 09:05:54;;;;;;;5.43;4.80;;;18.60;1.00;;;;;;5055034;28;20109;-86
2022/04/29 09:08:22;;;;;;;5.63;4.57;;;18.60;1.00;;;;;;5057572;28;20021;-86
2022/04/29 09:10:53;;;;;;;5.30;4.50;;;18.70;1.00;;;;;;5055967;28;20020;-86
2022/04/29 09:13:24;;;;;;;4.65;3.63;;;18.90;1.00;;;;;;5055874;28;20390;-86
2022/04/29 09:15:54;;;;;;;5.55;5.00;;;19.10;1.00;;;;;;5052967;28;20055;-86
2022/04/29 09:18:31;;;;;;;6.10;4.55;;;18.90;1.00;;;;;;5059416;28;20021;-86
2022/04/29 09:20:56;;;;;;;5.80;5.00;;;19.10;1.00;;;;;;5057881;28;20032;-86
2022/04/29 09:23:27;;;;;;;5.47;4.80;;;19.00;1.00;;;;;;5057339;28;20048;-85
2022/04/29 09:25:52;;;;;;;7.57;5.35;;;19.10;1.00;;;;;;5056933;28;20147;-86
2022/04/29 09:28:18;;;;;;;7.00;5.00;;;19.20;1.00;;;;;;5055261;28;20489;-86
2022/04/29 09:30:44;;;;;;;7.30;5.88;;;19.30;1.00;;;;;;5054939;28;20028;-86
2022/04/29 09:33:26;;;;;;;8.07;5.53;;;19.30;1.00;;;;;;5057014;28;20495;-86
2022/04/29 09:35:54;;;;;;;6.95;5.95;;;19.40;1.00;;;;;;5056040;28;20443;-86
2022/04/29 09:41:07;;;;;;;7.35;6.05;;;19.60;1.00;;;;;;5055404;28;20090;-86
2022/04/29 09:43:34;;;;;;;8.13;5.68;;;19.50;1.00;;;;;;5057206;28;20025;-86
2022/04/29 09:46:19;;;;;;;7.63;5.20;;;19.60;1.00;;;;;;5036910;28;20037;-86
2022/04/29 09:48:54;;;;;;;5.75;5.10;;;19.80;1.00;;;;;;5066950;28;20025;-87
2022/04/29 09:51:41;;;;;;;9.48;5.97;;;20.00;1.00;;;;;;5057663;28;20021;-86
2022/04/29 09:54:31;;;;;;;8.82;5.50;;;20.00;1.00;;;;;;5058000;28;20158;-86
2022/04/29 09:57:07;;;;;;;5.38;3.60;;;20.10;1.00;;;;;;5055519;28;20099;-86
2022/04/29 09:59:47;;;;;;;4.55;3.75;;;19.90;1.00;;;;;;5056718;28;20025;-86
2022/04/29 10:02:26;;;;;;;3.92;3.53;;;19.90;1.00;;;;;;5056691;28;20032;-86
2022/04/29 10:04:54;;;;;;;12.48;4.72;;;19.90;1.00;;;;;;5055273;28;20500;-86
2022/04/29 10:07:23;;;;;;;5.85;4.88;;;19.90;1.00;;;;;;5054479;28;20044;-86
2022/04/29 10:09:54;;;;;;;5.20;4.70;;;20.00;1.00;;;;;;5053418;28;20075;-86
2022/04/29 10:12:25;;;;;;;8.85;4.90;;;20.10;1.00;;;;;;5058279;28;20505;-86
2022/04/29 10:14:59;;;;;;;6.82;4.93;;;20.00;1.00;;;;;;5056469;28;20104;-85
2022/04/29 10:23:11;;;;;;;5.55;4.60;;;20.00;1.00;;;;;;5055612;28;20393;-86
2022/04/29 10:25:42;;;;;;;6.88;5.30;;;20.20;1.00;;;;;;5055986;28;20037;-86
2022/04/29 10:28:09;;;;;;;5.93;5.40;;;20.30;1.00;;;;;;5052633;28;20025;-86
2022/04/29 10:30:35;;;;;;;5.00;4.60;;;20.40;1.00;;;;;;5056211;28;20052;-86
2022/04/29 10:33:24;;;;;;;6.07;4.65;;;20.40;1.00;;;;;;5055446;28;20100;-86
2022/04/29 10:35:58;;;;;;;5.00;4.50;;;20.50;1.00;;;;;;5056091;28;20037;-86
2022/04/29 10:38:36;;;;;;;8.18;6.05;;;20.30;1.00;;;;;;5054231;28;20119;-86
2022/04/29 10:41:19;;;;;;;4.65;4.00;;;20.60;1.00;;;;;;5055261;28;20112;-86
2022/04/29 10:43:51;;;;;;;5.00;4.50;;;20.70;1.00;;;;;;5055906;28;20358;-86
2022/04/29 10:46:24;;;;;;;5.93;3.95;;;21.00;1.00;;;;;;5052211;28;20039;-86
2022/04/29 10:48:53;;;;;;;5.20;4.38;;;20.90;1.00;;;;;;5052501;28;20115;-85
2022/04/29 10:51:25;;;;;;;5.40;4.90;;;21.10;1.00;;;;;;5057474;28;20032;-86
2022/04/29 10:53:58;;;;;;;4.75;4.20;;;21.30;1.00;;;;;;5055659;28;20082;-86
2022/04/29 10:56:26;;;;;;;4.45;3.80;;;21.50;1.00;;;;;;5054307;28;20033;-86
2022/04/29 10:58:53;;;;;;;4.38;3.97;;;21.50;1.00;;;;;;5054084;28;20100;-86
2022/04/29 11:01:27;;;;;;;7.10;4.13;;;22.20;1.00;;;;;;5053657;28;20029;-86
2022/04/29 11:03:53;;;;;;;6.53;4.20;;;22.90;1.00;;;;;;5051739;28;20564;-86
2022/04/29 11:06:19;;;;;;;4.43;3.72;;;23.20;1.00;;;;;;5055760;28;20116;-87
2022/04/29 11:08:46;;;;;;;3.80;3.50;;;24.00;1.00;;;;;;5055519;28;20504;-86
2022/04/29 11:11:12;;;;;;;3.78;3.05;;;24.60;1.00;;;;;;5055413;28;20025;-86
2022/04/29 11:13:47;;;;;;;6.53;3.50;;;25.10;1.00;;;;;;5055392;28;20020;-86
2022/04/29 11:16:19;;;;;;;3.85;3.50;;;25.10;1.00;;;;;;5052768;28;20029;-86
2022/04/29 11:18:45;;;;;;;4.40;4.00;;;25.60;1.00;;;;;;5051423;28;20021;-87
2022/04/29 11:26:52;;;;;;;4.20;3.80;;;26.40;1.00;;;;;;5055191;28;20093;-86
2022/04/29 11:29:18;;;;;;;3.95;3.55;;;26.80;1.00;;;;;;5054974;28;20355;-87
2022/04/29 11:31:43;;;;;;;5.55;3.88;;;26.60;1.00;;;;;;5055152;28;20037;-87
2022/04/29 11:34:14;;;;;;;4.25;3.85;;;26.60;1.00;;;;;;5050237;28;20042;-87
2022/04/29 11:36:41;;;;;;;4.22;3.65;;;26.80;1.00;;;;;;5053521;28;20037;-86
2022/04/29 11:39:15;;;;;;;6.05;3.97;;;26.80;1.00;;;;;;5054509;28;20029;-87
2022/04/29 11:41:55;;;;;;;4.30;3.88;;;27.00;1.00;;;;;;5053564;28;20029;-87
2022/04/29 11:44:36;;;;;;;4.10;3.70;;;26.60;1.00;;;;;;5054820;28;20163;-87
2022/04/29 11:47:02;;;;;;;5.00;3.80;;;26.80;1.00;;;;;;5054543;28;20037;-87
2022/04/29 11:49:32;;;;;;;3.75;3.42;;;27.00;1.00;;;;;;5053894;28;20162;-87
2022/04/29 11:52:16;;;;;;;3.83;3.42;;;27.40;1.00;;;;;;5049602;28;20347;-87
2022/04/29 11:54:56;;;;;;;5.85;3.33;;;26.90;1.00;;;;;;5064834;28;20420;-87
2022/04/29 11:57:23;;;;;;;3.50;3.20;;;26.30;1.00;;;;;;5056089;28;20024;-86
2022/04/29 11:59:49;;;;;;;3.70;3.30;;;26.50;1.00;;;;;;5054529;28;20033;-86
2022/04/29 12:02:20;;;;;;;3.50;3.20;;;26.80;1.00;;;;;;5054653;28;20032;-87
2022/04/29 12:04:58;;;;;;;3.00;2.80;;;26.90;1.00;;;;;;5054473;28;20028;-87
2022/04/29 12:07:25;;;;;;;3.40;3.10;;;27.10;1.00;;;;;;5053400;28;20081;-87
2022/04/29 12:09:53;;;;;;;3.33;2.40;;;26.70;1.00;;;;;;5051240;28;20092;-87
2022/04/29 12:12:30;;;;;;;4.32;2.60;;;26.50;1.00;;;;;;5056460;28;20099;-86
2022/04/29 12:14:58;;;;;;;2.88;2.45;;;26.10;1.00;;;;;;5053328;28;20033;-86
2022/04/29 12:17:35;;;;;;;3.17;2.45;;;26.10;1.00;;;;;;5052919;28;20051;-87
2022/04/29 12:20:01;;;;;;;2.50;2.25;;;25.70;1.00;;;;;;5054161;28;20025;-87
2022/04/29 12:22:28;;;;;;;7.65;2.53;;;25.90;1.00;;;;;;5053491;28;20503;-87
2022/04/29 12:24:54;;;;;;;3.03;2.60;;;26.10;1.00;;;;;;5050755;28;20131;-87
2022/04/29 12:27:30;;;;;;;3.63;2.70;;;25.60;1.00;;;;;;5056348;28;20048;-86
2022/04/29 12:35:28;;;;;;;4.53;2.75;;;26.80;1.00;;;;;;5054204;28;20102;-87
2022/04/29 12:37:54;;;;;;;2.75;2.40;;;27.80;1.00;;;;;;5054252;28;20479;-86
2022/04/29 12:40:30;;;;;;;3.40;2.58;;;28.30;1.00;;;;;;5052588;28;20509;-86
2022/04/29 12:43:12;;;;;;;2.97;2.55;;;28.30;1.00;;;;;;5050311;28;20062;-87
2022/04/29 12:45:38;;;;;;;2.70;2.50;;;28.50;1.00;;;;;;5064418;28;20036;-87
2022/04/29 12:48:06;;;;;;;3.08;2.70;;;28.90;1.00;;;;;;5054856;28;20032;-87
2022/04/29 12:50:35;;;;;;;3.55;2.60;;;29.00;1.00;;;;;;5054228;28;20135;-87
2022/04/29 12:53:05;;;;;;;2.58;2.38;;;29.30;1.00;;;;;;5052688;28;20025;-87
2022/04/29 12:55:44;;;;;;;2.80;2.58;;;29.70;1.00;;;;;;5052446;28;20031;-87
2022/04/29 12:58:19;;;;;;;3.13;2.13;;;30.00;99.90;;;;;;5036299;28;20021;-87
2022/04/29 13:00:56;;;;;;;3.40;2.35;;;29.70;1.00;;;;;;5051698;28;20493;-87
2022/04/29 13:03:27;;;;;;;2.75;2.20;;;29.50;1.00;;;;;;5055885;28;20059;-87
2022/04/29 13:05:53;;;;;;;3.25;2.10;;;30.10;99.90;;;;;;5057750;28;20078;-87
2022/04/29 13:08:20;;;;;;;3.47;1.98;;;30.20;99.90;;;;;;5057725;28;20040;-87
2022/04/29 13:10:45;;;;;;;3.70;1.80;;;29.80;99.90;;;;;;5057783;28;20111;-87
2022/04/29 13:13:11;;;;;;;4.60;2.10;;;29.70;99.90;;;;;;5054659;28;20108;-87
2022/04/29 13:15:41;;;;;;;2.42;2.22;;;29.20;99.90;;;;;;5057572;28;20041;-87
2022/04/29 13:18:08;;;;;;;3.65;2.17;;;29.50;99.90;;;;;;5058647;28;20098;-87
2022/04/29 13:20:33;;;;;;;2.50;2.30;;;29.60;99.90;;;;;;5057579;28;20033;-87
2022/04/29 13:22:59;;;;;;;2.20;2.08;;;29.20;99.90;;;;;;5057450;28;20025;-87
2022/04/29 13:25:25;;;;;;;2.17;2.00;;;28.20;99.90;;;;;;5056388;28;20040;-87
2022/04/29 13:27:50;;;;;;;3.65;2.30;;;27.80;99.90;;;;;;5054134;28;20048;-86
2022/04/29 13:30:16;;;;;;;2.70;2.10;;;27.40;99.90;;;;;;5058985;28;20035;-87
2022/04/29 13:32:42;;;;;;;3.33;2.38;;;28.00;99.90;;;;;;5055456;28;20035;-87
2022/04/29 13:35:08;;;;;;;2.42;1.92;;;28.10;99.90;;;;;;5055397;28;20041;-87
2022/04/29 13:37:36;;;;;;;2.22;2.00;;;28.00;99.90;;;;;;5057169;28;20024;-87
2022/04/29 13:40:02;;;;;;;3.22;2.20;;;27.90;99.90;;;;;;5052939;28;20116;-87